sensor_id;sensor_type;location;lat;lon;timestamp;P1;durP1;ratioP1;P2;durP2;ratioP2
14665;SDS011;7420;53.574;10.040;2023-04-07T00:01:51;11.07;;;9.18;;
14665;SDS011;7420;53.574;10.040;2023-04-07T00:04:17;13.85;;;9.43;;
14665;SDS011;7420;53.574;10.040;2023-04-07T00:06:43;10.65;;;9.15;;
14665;SDS011;7420;53.574;10.040;2023-04-07T00:09:09;15.52;;;9.50;;
14665;SDS011;7420;53.574;10.040;2023-04-07T00:11:35;11.93;;;9.50;;
14665;SDS011;7420;53.574;10.040;2023-04-07T00:14:00;14.40;;;9.25;;
14665;SDS011;7420;53.574;10.040;2023-04-07T00:16:26;15.55;;;10.10;;
14665;SDS011;7420;53.574;10.040;2023-04-07T00:18:51;12.82;;;9.40;;
14665;SDS011;7420;53.574;10.040;2023-04-07T00:21:17;13.38;;;9.88;;
14665;SDS011;7420;53.574;10.040;2023-04-07T00:23:42;13.48;;;8.98;;
14665;SDS011;7420;53.574;10.040;2023-04-07T00:26:07;13.75;;;9.20;;
14665;SDS011;7420;53.574;10.040;2023-04-07T00:28:33;12.80;;;9.77;;
14665;SDS011;7420;53.574;10.040;2023-04-07T00:30:58;11.23;;;8.68;;
14665;SDS011;7420;53.574;10.040;2023-04-07T00:33:23;16.05;;;10.10;;
14665;SDS011;7420;53.574;10.040;2023-04-07T00:35:49;11.75;;;9.70;;
14665;SDS011;7420;53.574;10.040;2023-04-07T00:38:15;12.57;;;9.43;;
14665;SDS011;7420;53.574;10.040;2023-04-07T00:40:41;14.93;;;10.27;;
14665;SDS011;7420;53.574;10.040;2023-04-07T00:43:06;12.60;;;9.45;;
14665;SDS011;7420;53.574;10.040;2023-04-07T00:45:31;14.60;;;9.60;;
14665;SDS011;7420;53.574;10.040;2023-04-07T00:47:57;12.07;;;9.55;;
14665;SDS011;7420;53.574;10.040;2023-04-07T00:50:23;13.20;;;10.02;;
14665;SDS011;7420;53.574;10.040;2023-04-07T00:52:48;12.40;;;9.77;;
14665;SDS011;7420;53.574;10.040;2023-04-07T00:55:14;12.82;;;9.07;;
14665;SDS011;7420;53.574;10.040;2023-04-07T00:57:40;11.70;;;9.50;;
14665;SDS011;7420;53.574;10.040;2023-04-07T01:00:06;12.05;;;9.93;;
14665;SDS011;7420;53.574;10.040;2023-04-07T01:02:42;11.25;;;8.73;;
14665;SDS011;7420;53.574;10.040;2023-04-07T01:05:14;13.05;;;8.93;;
14665;SDS011;7420;53.574;10.040;2023-04-07T01:10:11;12.63;;;9.02;;
14665;SDS011;7420;53.574;10.040;2023-04-07T01:12:55;11.50;;;8.98;;
14665;SDS011;7420;53.574;10.040;2023-04-07T01:15:27;12.55;;;9.20;;
14665;SDS011;7420;53.574;10.040;2023-04-07T01:17:58;11.07;;;9.55;;
14665;SDS011;7420;53.574;10.040;2023-04-07T01:20:26;11.65;;;9.75;;
14665;SDS011;7420;53.574;10.040;2023-04-07T01:22:56;13.68;;;10.30;;
14665;SDS011;7420;53.574;10.040;2023-04-07T01:30:33;14.07;;;10.02;;
14665;SDS011;7420;53.574;10.040;2023-04-07T01:33:01;12.10;;;9.18;;
14665;SDS011;7420;53.574;10.040;2023-04-07T01:35:31;11.82;;;9.68;;
14665;SDS011;7420;53.574;10.040;2023-04-07T01:37:58;10.43;;;9.18;;
14665;SDS011;7420;53.574;10.040;2023-04-07T01:40:24;11.48;;;8.52;;
14665;SDS011;7420;53.574;10.040;2023-04-07T01:42:52;11.80;;;8.82;;
14665;SDS011;7420;53.574;10.040;2023-04-07T01:45:18;12.95;;;9.25;;
14665;SDS011;7420;53.574;10.040;2023-04-07T01:47:45;15.02;;;9.10;;
14665;SDS011;7420;53.574;10.040;2023-04-07T01:50:11;12.23;;;8.55;;
14665;SDS011;7420;53.574;10.040;2023-04-07T01:52:37;12.63;;;9.02;;
14665;SDS011;7420;53.574;10.040;2023-04-07T01:55:04;10.35;;;8.20;;
14665;SDS011;7420;53.574;10.040;2023-04-07T01:57:31;12.30;;;9.82;;
14665;SDS011;7420;53.574;10.040;2023-04-07T01:59:56;10.98;;;8.40;;
14665;SDS011;7420;53.574;10.040;2023-04-07T02:02:22;13.50;;;8.85;;
14665;SDS011;7420;53.574;10.040;2023-04-07T02:07:19;10.27;;;8.50;;
14665;SDS011;7420;53.574;10.040;2023-04-07T02:09:51;10.15;;;8.68;;
14665;SDS011;7420;53.574;10.040;2023-04-07T02:12:21;11.85;;;9.13;;
14665;SDS011;7420;53.574;10.040;2023-04-07T02:14:47;10.15;;;8.05;;
14665;SDS011;7420;53.574;10.040;2023-04-07T02:17:13;9.82;;;7.82;;
14665;SDS011;7420;53.574;10.040;2023-04-07T02:19:40;10.80;;;9.25;;
14665;SDS011;7420;53.574;10.040;2023-04-07T02:22:07;9.00;;;7.90;;
14665;SDS011;7420;53.574;10.040;2023-04-07T02:24:33;11.15;;;8.13;;
14665;SDS011;7420;53.574;10.040;2023-04-07T02:26:58;9.38;;;8.07;;
14665;SDS011;7420;53.574;10.040;2023-04-07T02:29:25;13.73;;;8.60;;
14665;SDS011;7420;53.574;10.040;2023-04-07T02:31:51;9.32;;;8.23;;
14665;SDS011;7420;53.574;10.040;2023-04-07T02:34:16;10.15;;;8.25;;
14665;SDS011;7420;53.574;10.040;2023-04-07T02:36:42;12.27;;;8.48;;
14665;SDS011;7420;53.574;10.040;2023-04-07T02:39:08;9.88;;;7.80;;
14665;SDS011;7420;53.574;10.040;2023-04-07T02:41:33;9.20;;;7.35;;
14665;SDS011;7420;53.574;10.040;2023-04-07T02:43:59;8.93;;;7.30;;
14665;SDS011;7420;53.574;10.040;2023-04-07T02:46:24;10.65;;;8.73;;
14665;SDS011;7420;53.574;10.040;2023-04-07T02:48:49;8.65;;;7.03;;
14665;SDS011;7420;53.574;10.040;2023-04-07T02:51:16;9.48;;;7.20;;
14665;SDS011;7420;53.574;10.040;2023-04-07T02:53:41;13.70;;;7.53;;
14665;SDS011;7420;53.574;10.040;2023-04-07T02:56:06;11.13;;;7.40;;
14665;SDS011;7420;53.574;10.040;2023-04-07T02:58:32;10.20;;;7.45;;
14665;SDS011;7420;53.574;10.040;2023-04-07T03:00:57;8.85;;;7.68;;
14665;SDS011;7420;53.574;10.040;2023-04-07T03:03:22;10.73;;;7.80;;
14665;SDS011;7420;53.574;10.040;2023-04-07T03:05:48;9.88;;;7.40;;
14665;SDS011;7420;53.574;10.040;2023-04-07T03:08:13;8.93;;;7.45;;
14665;SDS011;7420;53.574;10.040;2023-04-07T03:10:39;11.35;;;6.72;;
14665;SDS011;7420;53.574;10.040;2023-04-07T03:13:04;9.30;;;7.25;;
14665;SDS011;7420;53.574;10.040;2023-04-07T03:15:30;10.32;;;7.45;;
14665;SDS011;7420;53.574;10.040;2023-04-07T03:17:55;8.25;;;7.32;;
14665;SDS011;7420;53.574;10.040;2023-04-07T03:20:20;9.98;;;7.45;;
14665;SDS011;7420;53.574;10.040;2023-04-07T03:22:46;10.48;;;6.85;;
14665;SDS011;7420;53.574;10.040;2023-04-07T03:25:12;9.77;;;6.97;;
14665;SDS011;7420;53.574;10.040;2023-04-07T03:27:38;10.38;;;7.22;;
14665;SDS011;7420;53.574;10.040;2023-04-07T03:30:03;11.93;;;7.25;;
14665;SDS011;7420;53.574;10.040;2023-04-07T03:32:29;10.18;;;7.35;;
14665;SDS011;7420;53.574;10.040;2023-04-07T03:34:54;10.05;;;7.18;;
14665;SDS011;7420;53.574;10.040;2023-04-07T03:37:20;9.73;;;6.85;;
14665;SDS011;7420;53.574;10.040;2023-04-07T03:39:45;8.77;;;6.53;;
14665;SDS011;7420;53.574;10.040;2023-04-07T03:42:11;8.32;;;7.43;;
14665;SDS011;7420;53.574;10.040;2023-04-07T03:44:36;9.40;;;6.47;;
14665;SDS011;7420;53.574;10.040;2023-04-07T03:47:02;8.45;;;6.85;;
14665;SDS011;7420;53.574;10.040;2023-04-07T03:49:27;8.90;;;7.00;;
14665;SDS011;7420;53.574;10.040;2023-04-07T03:51:53;8.30;;;7.22;;
14665;SDS011;7420;53.574;10.040;2023-04-07T03:54:18;11.07;;;7.22;;
14665;SDS011;7420;53.574;10.040;2023-04-07T03:56:44;10.38;;;7.25;;
14665;SDS011;7420;53.574;10.040;2023-04-07T03:59:09;9.77;;;6.78;;
14665;SDS011;7420;53.574;10.040;2023-04-07T04:01:35;8.30;;;6.97;;
14665;SDS011;7420;53.574;10.040;2023-04-07T04:04:01;8.38;;;7.25;;
14665;SDS011;7420;53.574;10.040;2023-04-07T04:06:26;11.32;;;8.52;;
14665;SDS011;7420;53.574;10.040;2023-04-07T04:08:52;8.05;;;7.03;;
14665;SDS011;7420;53.574;10.040;2023-04-07T04:11:17;12.48;;;7.50;;
14665;SDS011;7420;53.574;10.040;2023-04-07T04:13:42;9.23;;;6.78;;
14665;SDS011;7420;53.574;10.040;2023-04-07T04:16:08;8.10;;;7.10;;
14665;SDS011;7420;53.574;10.040;2023-04-07T04:18:33;9.73;;;6.68;;
14665;SDS011;7420;53.574;10.040;2023-04-07T04:20:59;7.80;;;6.72;;
14665;SDS011;7420;53.574;10.040;2023-04-07T04:23:24;8.50;;;6.85;;
14665;SDS011;7420;53.574;10.040;2023-04-07T04:25:50;8.00;;;7.05;;
14665;SDS011;7420;53.574;10.040;2023-04-07T04:28:15;9.45;;;7.63;;
14665;SDS011;7420;53.574;10.040;2023-04-07T04:30:41;10.80;;;7.63;;
14665;SDS011;7420;53.574;10.040;2023-04-07T04:33:06;9.38;;;7.15;;
14665;SDS011;7420;53.574;10.040;2023-04-07T04:35:31;7.40;;;6.57;;
14665;SDS011;7420;53.574;10.040;2023-04-07T04:37:57;8.38;;;6.97;;
14665;SDS011;7420;53.574;10.040;2023-04-07T04:40:23;8.50;;;7.25;;
14665;SDS011;7420;53.574;10.040;2023-04-07T04:42:48;7.60;;;6.18;;
14665;SDS011;7420;53.574;10.040;2023-04-07T04:45:13;10.50;;;7.95;;
14665;SDS011;7420;53.574;10.040;2023-04-07T04:47:39;12.13;;;7.20;;
14665;SDS011;7420;53.574;10.040;2023-04-07T04:50:05;12.32;;;6.63;;
14665;SDS011;7420;53.574;10.040;2023-04-07T04:52:31;9.93;;;7.50;;
14665;SDS011;7420;53.574;10.040;2023-04-07T04:54:57;9.90;;;7.40;;
14665;SDS011;7420;53.574;10.040;2023-04-07T04:57:22;11.43;;;7.32;;
14665;SDS011;7420;53.574;10.040;2023-04-07T04:59:47;11.23;;;7.25;;
14665;SDS011;7420;53.574;10.040;2023-04-07T05:02:13;10.13;;;7.18;;
14665;SDS011;7420;53.574;10.040;2023-04-07T05:04:38;8.95;;;6.32;;
14665;SDS011;7420;53.574;10.040;2023-04-07T05:07:03;20.38;;;11.90;;
14665;SDS011;7420;53.574;10.040;2023-04-07T05:09:29;11.18;;;7.75;;
14665;SDS011;7420;53.574;10.040;2023-04-07T05:11:55;10.98;;;8.73;;
14665;SDS011;7420;53.574;10.040;2023-04-07T05:14:21;11.52;;;7.13;;
14665;SDS011;7420;53.574;10.040;2023-04-07T05:16:47;12.25;;;6.78;;
14665;SDS011;7420;53.574;10.040;2023-04-07T05:19:12;11.20;;;7.60;;
14665;SDS011;7420;53.574;10.040;2023-04-07T05:21:37;8.43;;;7.13;;
14665;SDS011;7420;53.574;10.040;2023-04-07T05:24:03;11.07;;;7.88;;
14665;SDS011;7420;53.574;10.040;2023-04-07T05:26:28;8.35;;;6.22;;
14665;SDS011;7420;53.574;10.040;2023-04-07T05:28:54;10.05;;;7.38;;
14665;SDS011;7420;53.574;10.040;2023-04-07T05:31:19;9.15;;;6.68;;
14665;SDS011;7420;53.574;10.040;2023-04-07T05:33:44;9.00;;;6.75;;
14665;SDS011;7420;53.574;10.040;2023-04-07T05:36:10;9.25;;;7.20;;
14665;SDS011;7420;53.574;10.040;2023-04-07T05:38:36;12.13;;;7.18;;
14665;SDS011;7420;53.574;10.040;2023-04-07T05:41:02;8.43;;;6.80;;
14665;SDS011;7420;53.574;10.040;2023-04-07T05:43:27;8.80;;;7.07;;
14665;SDS011;7420;53.574;10.040;2023-04-07T05:45:52;9.85;;;6.15;;
14665;SDS011;7420;53.574;10.040;2023-04-07T05:48:18;9.13;;;7.25;;
14665;SDS011;7420;53.574;10.040;2023-04-07T05:50:43;11.30;;;6.57;;
14665;SDS011;7420;53.574;10.040;2023-04-07T05:53:08;7.82;;;6.28;;
14665;SDS011;7420;53.574;10.040;2023-04-07T05:55:34;9.00;;;6.15;;
14665;SDS011;7420;53.574;10.040;2023-04-07T05:57:59;8.15;;;7.05;;
14665;SDS011;7420;53.574;10.040;2023-04-07T06:00:25;11.45;;;7.00;;
14665;SDS011;7420;53.574;10.040;2023-04-07T06:02:51;7.35;;;6.55;;
14665;SDS011;7420;53.574;10.040;2023-04-07T06:05:16;9.70;;;6.72;;
14665;SDS011;7420;53.574;10.040;2023-04-07T06:07:42;10.55;;;6.53;;
14665;SDS011;7420;53.574;10.040;2023-04-07T06:10:07;10.05;;;6.88;;
14665;SDS011;7420;53.574;10.040;2023-04-07T06:12:32;8.85;;;6.38;;
14665;SDS011;7420;53.574;10.040;2023-04-07T06:14:58;23.17;;;11.20;;
14665;SDS011;7420;53.574;10.040;2023-04-07T06:17:23;12.68;;;7.90;;
14665;SDS011;7420;53.574;10.040;2023-04-07T06:19:49;13.68;;;8.15;;
14665;SDS011;7420;53.574;10.040;2023-04-07T06:22:14;13.95;;;8.25;;
14665;SDS011;7420;53.574;10.040;2023-04-07T06:24:39;12.98;;;7.68;;
14665;SDS011;7420;53.574;10.040;2023-04-07T06:27:05;11.48;;;8.00;;
14665;SDS011;7420;53.574;10.040;2023-04-07T06:29:31;13.25;;;7.82;;
14665;SDS011;7420;53.574;10.040;2023-04-07T06:31:57;10.30;;;6.88;;
14665;SDS011;7420;53.574;10.040;2023-04-07T06:34:23;12.73;;;7.28;;
14665;SDS011;7420;53.574;10.040;2023-04-07T06:36:48;12.98;;;7.90;;
14665;SDS011;7420;53.574;10.040;2023-04-07T06:39:13;11.95;;;7.43;;
14665;SDS011;7420;53.574;10.040;2023-04-07T06:41:39;10.43;;;7.95;;
14665;SDS011;7420;53.574;10.040;2023-04-07T06:44:07;10.13;;;7.55;;
14665;SDS011;7420;53.574;10.040;2023-04-07T06:46:33;12.60;;;7.43;;
14665;SDS011;7420;53.574;10.040;2023-04-07T06:48:58;9.48;;;7.00;;
14665;SDS011;7420;53.574;10.040;2023-04-07T06:51:24;11.85;;;7.18;;
14665;SDS011;7420;53.574;10.040;2023-04-07T06:53:50;10.93;;;6.43;;
14665;SDS011;7420;53.574;10.040;2023-04-07T06:56:15;12.35;;;7.50;;
14665;SDS011;7420;53.574;10.040;2023-04-07T06:58:41;8.27;;;6.72;;
14665;SDS011;7420;53.574;10.040;2023-04-07T07:01:06;10.25;;;7.43;;
14665;SDS011;7420;53.574;10.040;2023-04-07T07:03:32;8.60;;;6.07;;
14665;SDS011;7420;53.574;10.040;2023-04-07T07:05:58;9.27;;;6.20;;
14665;SDS011;7420;53.574;10.040;2023-04-07T07:08:24;9.82;;;6.53;;
14665;SDS011;7420;53.574;10.040;2023-04-07T07:10:50;8.55;;;6.90;;
14665;SDS011;7420;53.574;10.040;2023-04-07T07:13:17;9.48;;;6.20;;
14665;SDS011;7420;53.574;10.040;2023-04-07T07:15:43;7.75;;;6.30;;
14665;SDS011;7420;53.574;10.040;2023-04-07T07:18:08;7.03;;;6.03;;
14665;SDS011;7420;53.574;10.040;2023-04-07T07:20:34;9.65;;;6.88;;
14665;SDS011;7420;53.574;10.040;2023-04-07T07:22:59;10.98;;;7.45;;
14665;SDS011;7420;53.574;10.040;2023-04-07T07:25:25;8.77;;;6.13;;
14665;SDS011;7420;53.574;10.040;2023-04-07T07:27:53;8.85;;;6.40;;
14665;SDS011;7420;53.574;10.040;2023-04-07T07:30:21;10.98;;;6.75;;
14665;SDS011;7420;53.574;10.040;2023-04-07T07:32:48;8.93;;;6.70;;
14665;SDS011;7420;53.574;10.040;2023-04-07T07:35:13;10.25;;;6.68;;
14665;SDS011;7420;53.574;10.040;2023-04-07T07:37:39;10.40;;;7.20;;
14665;SDS011;7420;53.574;10.040;2023-04-07T07:40:05;10.85;;;6.63;;
14665;SDS011;7420;53.574;10.040;2023-04-07T07:42:31;11.43;;;7.38;;
14665;SDS011;7420;53.574;10.040;2023-04-07T07:44:56;9.23;;;7.05;;
14665;SDS011;7420;53.574;10.040;2023-04-07T07:47:22;16.20;;;8.63;;
14665;SDS011;7420;53.574;10.040;2023-04-07T07:49:48;8.20;;;5.95;;
14665;SDS011;7420;53.574;10.040;2023-04-07T07:52:13;9.65;;;6.13;;
14665;SDS011;7420;53.574;10.040;2023-04-07T07:54:39;10.18;;;6.95;;
14665;SDS011;7420;53.574;10.040;2023-04-07T07:57:04;8.30;;;6.38;;
14665;SDS011;7420;53.574;10.040;2023-04-07T07:59:30;8.95;;;6.22;;
14665;SDS011;7420;53.574;10.040;2023-04-07T08:01:56;9.50;;;6.25;;
14665;SDS011;7420;53.574;10.040;2023-04-07T08:04:21;11.35;;;5.78;;
14665;SDS011;7420;53.574;10.040;2023-04-07T08:06:47;7.78;;;5.95;;
14665;SDS011;7420;53.574;10.040;2023-04-07T08:09:13;9.18;;;6.00;;
14665;SDS011;7420;53.574;10.040;2023-04-07T08:11:39;8.68;;;5.82;;
14665;SDS011;7420;53.574;10.040;2023-04-07T08:14:05;9.43;;;5.88;;
14665;SDS011;7420;53.574;10.040;2023-04-07T08:16:31;9.43;;;6.03;;
14665;SDS011;7420;53.574;10.040;2023-04-07T08:18:56;9.07;;;5.50;;
14665;SDS011;7420;53.574;10.040;2023-04-07T08:21:21;7.18;;;5.50;;
14665;SDS011;7420;53.574;10.040;2023-04-07T08:23:47;8.02;;;6.07;;
14665;SDS011;7420;53.574;10.040;2023-04-07T08:26:12;7.75;;;5.70;;
14665;SDS011;7420;53.574;10.040;2023-04-07T08:28:38;9.30;;;5.55;;
14665;SDS011;7420;53.574;10.040;2023-04-07T08:31:03;8.02;;;5.85;;
14665;SDS011;7420;53.574;10.040;2023-04-07T08:33:29;10.38;;;6.32;;
14665;SDS011;7420;53.574;10.040;2023-04-07T08:36:19;9.60;;;5.57;;
14665;SDS011;7420;53.574;10.040;2023-04-07T08:38:44;8.73;;;5.95;;
14665;SDS011;7420;53.574;10.040;2023-04-07T08:41:11;7.45;;;5.20;;
14665;SDS011;7420;53.574;10.040;2023-04-07T08:43:37;7.90;;;6.03;;
14665;SDS011;7420;53.574;10.040;2023-04-07T08:46:04;7.93;;;5.93;;
14665;SDS011;7420;53.574;10.040;2023-04-07T08:48:30;9.07;;;5.30;;
14665;SDS011;7420;53.574;10.040;2023-04-07T08:51:00;9.18;;;5.45;;
14665;SDS011;7420;53.574;10.040;2023-04-07T08:53:32;7.53;;;5.63;;
14665;SDS011;7420;53.574;10.040;2023-04-07T08:56:01;6.57;;;5.68;;
14665;SDS011;7420;53.574;10.040;2023-04-07T08:58:29;7.45;;;5.45;;
14665;SDS011;7420;53.574;10.040;2023-04-07T09:00:54;5.20;;;4.70;;
14665;SDS011;7420;53.574;10.040;2023-04-07T09:03:20;9.20;;;6.35;;
14665;SDS011;7420;53.574;10.040;2023-04-07T09:05:47;5.95;;;5.20;;
14665;SDS011;7420;53.574;10.040;2023-04-07T09:08:13;6.63;;;5.10;;
14665;SDS011;7420;53.574;10.040;2023-04-07T09:10:39;6.30;;;4.97;;
14665;SDS011;7420;53.574;10.040;2023-04-07T09:13:04;7.07;;;4.72;;
14665;SDS011;7420;53.574;10.040;2023-04-07T09:15:30;7.47;;;5.75;;
14665;SDS011;7420;53.574;10.040;2023-04-07T09:17:56;6.82;;;5.75;;
14665;SDS011;7420;53.574;10.040;2023-04-07T09:20:22;6.90;;;5.75;;
14665;SDS011;7420;53.574;10.040;2023-04-07T09:22:47;6.75;;;5.38;;
14665;SDS011;7420;53.574;10.040;2023-04-07T09:27:56;8.57;;;6.15;;
14665;SDS011;7420;53.574;10.040;2023-04-07T09:30:30;7.45;;;5.45;;
14665;SDS011;7420;53.574;10.040;2023-04-07T09:32:58;7.30;;;5.38;;
14665;SDS011;7420;53.574;10.040;2023-04-07T09:35:24;7.25;;;5.72;;
14665;SDS011;7420;53.574;10.040;2023-04-07T09:38:08;11.25;;;6.00;;
14665;SDS011;7420;53.574;10.040;2023-04-07T09:40:34;13.00;;;6.70;;
14665;SDS011;7420;53.574;10.040;2023-04-07T09:43:00;8.27;;;5.75;;
14665;SDS011;7420;53.574;10.040;2023-04-07T09:45:28;8.57;;;6.13;;
14665;SDS011;7420;53.574;10.040;2023-04-07T09:47:56;7.97;;;6.32;;
14665;SDS011;7420;53.574;10.040;2023-04-07T09:50:34;8.25;;;6.10;;
14665;SDS011;7420;53.574;10.040;2023-04-07T09:53:01;6.45;;;5.68;;
14665;SDS011;7420;53.574;10.040;2023-04-07T09:55:28;9.38;;;6.65;;
14665;SDS011;7420;53.574;10.040;2023-04-07T09:57:54;6.97;;;5.70;;
14665;SDS011;7420;53.574;10.040;2023-04-07T10:00:20;8.68;;;6.30;;
14665;SDS011;7420;53.574;10.040;2023-04-07T10:02:46;10.00;;;6.82;;
14665;SDS011;7420;53.574;10.040;2023-04-07T10:05:13;7.70;;;6.90;;
14665;SDS011;7420;53.574;10.040;2023-04-07T10:07:39;7.45;;;6.07;;
14665;SDS011;7420;53.574;10.040;2023-04-07T10:10:05;8.48;;;6.32;;
14665;SDS011;7420;53.574;10.040;2023-04-07T10:12:33;8.43;;;6.68;;
14665;SDS011;7420;53.574;10.040;2023-04-07T10:15:00;7.13;;;5.53;;
14665;SDS011;7420;53.574;10.040;2023-04-07T10:17:26;6.18;;;5.57;;
14665;SDS011;7420;53.574;10.040;2023-04-07T10:19:52;8.02;;;5.63;;
14665;SDS011;7420;53.574;10.040;2023-04-07T10:22:18;8.30;;;5.88;;
14665;SDS011;7420;53.574;10.040;2023-04-07T10:27:21;8.90;;;6.40;;
14665;SDS011;7420;53.574;10.040;2023-04-07T10:29:53;8.38;;;5.93;;
14665;SDS011;7420;53.574;10.040;2023-04-07T10:32:19;7.35;;;4.82;;
14665;SDS011;7420;53.574;10.040;2023-04-07T10:37:20;7.53;;;4.95;;
14665;SDS011;7420;53.574;10.040;2023-04-07T10:39:46;6.05;;;5.00;;
14665;SDS011;7420;53.574;10.040;2023-04-07T10:45:03;7.25;;;5.22;;
14665;SDS011;7420;53.574;10.040;2023-04-07T10:47:33;6.93;;;5.20;;
14665;SDS011;7420;53.574;10.040;2023-04-07T10:52:48;6.13;;;4.60;;
14665;SDS011;7420;53.574;10.040;2023-04-07T11:03:11;6.97;;;4.70;;
14665;SDS011;7420;53.574;10.040;2023-04-07T11:05:40;6.95;;;5.70;;
14665;SDS011;7420;53.574;10.040;2023-04-07T11:08:06;8.27;;;5.07;;
14665;SDS011;7420;53.574;10.040;2023-04-07T11:10:33;7.97;;;6.32;;
14665;SDS011;7420;53.574;10.040;2023-04-07T11:12:59;6.90;;;5.57;;
14665;SDS011;7420;53.574;10.040;2023-04-07T11:15:29;9.27;;;5.95;;
14665;SDS011;7420;53.574;10.040;2023-04-07T11:18:11;7.57;;;5.50;;
14665;SDS011;7420;53.574;10.040;2023-04-07T11:20:43;6.88;;;5.03;;
14665;SDS011;7420;53.574;10.040;2023-04-07T11:23:09;6.18;;;4.80;;
14665;SDS011;7420;53.574;10.040;2023-04-07T11:25:36;7.15;;;5.45;;
14665;SDS011;7420;53.574;10.040;2023-04-07T11:28:04;7.68;;;5.30;;
14665;SDS011;7420;53.574;10.040;2023-04-07T11:30:30;9.63;;;5.82;;
14665;SDS011;7420;53.574;10.040;2023-04-07T11:32:56;7.07;;;5.82;;
14665;SDS011;7420;53.574;10.040;2023-04-07T11:35:22;9.00;;;5.68;;
14665;SDS011;7420;53.574;10.040;2023-04-07T11:37:49;8.73;;;5.07;;
14665;SDS011;7420;53.574;10.040;2023-04-07T11:40:35;7.70;;;5.38;;
14665;SDS011;7420;53.574;10.040;2023-04-07T11:43:02;8.43;;;5.80;;
14665;SDS011;7420;53.574;10.040;2023-04-07T11:45:40;9.18;;;5.95;;
14665;SDS011;7420;53.574;10.040;2023-04-07T11:48:24;7.28;;;5.32;;
14665;SDS011;7420;53.574;10.040;2023-04-07T11:50:50;11.60;;;7.22;;
14665;SDS011;7420;53.574;10.040;2023-04-07T11:53:23;10.75;;;7.72;;
14665;SDS011;7420;53.574;10.040;2023-04-07T11:55:57;10.68;;;6.63;;
14665;SDS011;7420;53.574;10.040;2023-04-07T11:58:34;8.90;;;4.85;;
14665;SDS011;7420;53.574;10.040;2023-04-07T12:01:02;7.15;;;4.97;;
14665;SDS011;7420;53.574;10.040;2023-04-07T12:03:33;8.00;;;6.10;;
14665;SDS011;7420;53.574;10.040;2023-04-07T12:06:01;7.32;;;5.13;;
14665;SDS011;7420;53.574;10.040;2023-04-07T12:08:40;7.65;;;5.32;;
14665;SDS011;7420;53.574;10.040;2023-04-07T12:11:07;6.43;;;5.00;;
14665;SDS011;7420;53.574;10.040;2023-04-07T12:13:34;8.35;;;5.50;;
14665;SDS011;7420;53.574;10.040;2023-04-07T12:16:01;6.80;;;4.20;;
14665;SDS011;7420;53.574;10.040;2023-04-07T12:18:27;6.53;;;4.68;;
14665;SDS011;7420;53.574;10.040;2023-04-07T12:20:54;7.18;;;5.10;;
14665;SDS011;7420;53.574;10.040;2023-04-07T12:23:21;9.27;;;5.72;;
14665;SDS011;7420;53.574;10.040;2023-04-07T12:25:46;8.80;;;5.13;;
14665;SDS011;7420;53.574;10.040;2023-04-07T12:28:12;7.95;;;4.95;;
14665;SDS011;7420;53.574;10.040;2023-04-07T12:30:37;5.70;;;4.93;;
14665;SDS011;7420;53.574;10.040;2023-04-07T12:33:02;7.78;;;5.20;;
14665;SDS011;7420;53.574;10.040;2023-04-07T12:35:28;8.65;;;4.68;;
14665;SDS011;7420;53.574;10.040;2023-04-07T12:37:54;6.72;;;4.72;;
14665;SDS011;7420;53.574;10.040;2023-04-07T12:40:20;6.03;;;3.97;;
14665;SDS011;7420;53.574;10.040;2023-04-07T12:42:46;6.85;;;4.05;;
14665;SDS011;7420;53.574;10.040;2023-04-07T12:45:12;5.03;;;3.55;;
14665;SDS011;7420;53.574;10.040;2023-04-07T12:47:37;4.28;;;3.10;;
14665;SDS011;7420;53.574;10.040;2023-04-07T12:50:02;4.82;;;3.15;;
14665;SDS011;7420;53.574;10.040;2023-04-07T12:52:28;4.40;;;3.70;;
14665;SDS011;7420;53.574;10.040;2023-04-07T12:54:53;9.77;;;3.60;;
14665;SDS011;7420;53.574;10.040;2023-04-07T12:57:19;4.25;;;2.85;;
14665;SDS011;7420;53.574;10.040;2023-04-07T12:59:44;4.90;;;3.00;;
14665;SDS011;7420;53.574;10.040;2023-04-07T13:02:10;5.00;;;3.45;;
14665;SDS011;7420;53.574;10.040;2023-04-07T13:04:37;5.35;;;3.80;;
14665;SDS011;7420;53.574;10.040;2023-04-07T13:07:04;4.15;;;3.03;;
14665;SDS011;7420;53.574;10.040;2023-04-07T13:09:30;4.32;;;3.00;;
14665;SDS011;7420;53.574;10.040;2023-04-07T13:11:55;3.85;;;2.92;;
14665;SDS011;7420;53.574;10.040;2023-04-07T13:14:21;3.58;;;2.50;;
14665;SDS011;7420;53.574;10.040;2023-04-07T13:16:47;5.03;;;2.60;;
14665;SDS011;7420;53.574;10.040;2023-04-07T13:19:12;3.60;;;2.70;;
14665;SDS011;7420;53.574;10.040;2023-04-07T13:21:37;2.83;;;2.45;;
14665;SDS011;7420;53.574;10.040;2023-04-07T13:24:03;5.20;;;2.78;;
14665;SDS011;7420;53.574;10.040;2023-04-07T13:26:28;3.72;;;2.65;;
14665;SDS011;7420;53.574;10.040;2023-04-07T13:28:53;4.50;;;2.50;;
14665;SDS011;7420;53.574;10.040;2023-04-07T13:31:19;3.22;;;2.60;;
14665;SDS011;7420;53.574;10.040;2023-04-07T13:33:45;3.40;;;2.35;;
14665;SDS011;7420;53.574;10.040;2023-04-07T13:36:11;2.78;;;2.10;;
14665;SDS011;7420;53.574;10.040;2023-04-07T13:38:36;4.35;;;2.70;;
14665;SDS011;7420;53.574;10.040;2023-04-07T13:41:02;4.57;;;2.67;;
14665;SDS011;7420;53.574;10.040;2023-04-07T13:43:28;4.72;;;3.10;;
14665;SDS011;7420;53.574;10.040;2023-04-07T13:45:53;3.88;;;2.70;;
14665;SDS011;7420;53.574;10.040;2023-04-07T13:48:20;3.05;;;2.30;;
14665;SDS011;7420;53.574;10.040;2023-04-07T13:50:45;4.20;;;2.88;;
14665;SDS011;7420;53.574;10.040;2023-04-07T13:53:11;3.25;;;2.50;;
14665;SDS011;7420;53.574;10.040;2023-04-07T13:55:36;6.35;;;3.10;;
14665;SDS011;7420;53.574;10.040;2023-04-07T13:58:02;5.00;;;3.03;;
14665;SDS011;7420;53.574;10.040;2023-04-07T14:00:28;3.33;;;2.35;;
14665;SDS011;7420;53.574;10.040;2023-04-07T14:02:53;4.72;;;2.53;;
14665;SDS011;7420;53.574;10.040;2023-04-07T14:05:20;3.47;;;2.40;;
14665;SDS011;7420;53.574;10.040;2023-04-07T14:07:45;3.65;;;2.95;;
14665;SDS011;7420;53.574;10.040;2023-04-07T14:10:11;4.18;;;2.63;;
14665;SDS011;7420;53.574;10.040;2023-04-07T14:12:36;4.35;;;2.95;;
14665;SDS011;7420;53.574;10.040;2023-04-07T14:15:02;3.85;;;3.05;;
14665;SDS011;7420;53.574;10.040;2023-04-07T14:17:28;4.45;;;3.40;;
14665;SDS011;7420;53.574;10.040;2023-04-07T14:19:53;3.92;;;3.25;;
14665;SDS011;7420;53.574;10.040;2023-04-07T14:22:19;4.80;;;3.22;;
14665;SDS011;7420;53.574;10.040;2023-04-07T14:24:44;8.57;;;3.20;;
14665;SDS011;7420;53.574;10.040;2023-04-07T14:27:10;5.00;;;3.03;;
14665;SDS011;7420;53.574;10.040;2023-04-07T14:29:35;4.50;;;3.33;;
14665;SDS011;7420;53.574;10.040;2023-04-07T14:32:01;6.25;;;3.40;;
14665;SDS011;7420;53.574;10.040;2023-04-07T14:34:26;8.15;;;3.17;;
14665;SDS011;7420;53.574;10.040;2023-04-07T14:36:52;4.93;;;3.38;;
14665;SDS011;7420;53.574;10.040;2023-04-07T14:39:19;4.35;;;2.90;;
14665;SDS011;7420;53.574;10.040;2023-04-07T14:41:45;8.15;;;3.85;;
14665;SDS011;7420;53.574;10.040;2023-04-07T14:44:11;6.30;;;3.55;;
14665;SDS011;7420;53.574;10.040;2023-04-07T14:46:37;4.10;;;3.30;;
14665;SDS011;7420;53.574;10.040;2023-04-07T14:49:02;5.03;;;3.47;;
14665;SDS011;7420;53.574;10.040;2023-04-07T14:51:28;4.32;;;3.53;;
14665;SDS011;7420;53.574;10.040;2023-04-07T14:53:54;6.00;;;3.40;;
14665;SDS011;7420;53.574;10.040;2023-04-07T14:56:21;6.72;;;3.80;;
14665;SDS011;7420;53.574;10.040;2023-04-07T14:58:47;5.05;;;3.78;;
14665;SDS011;7420;53.574;10.040;2023-04-07T15:01:12;5.13;;;3.97;;
14665;SDS011;7420;53.574;10.040;2023-04-07T15:03:38;5.95;;;3.53;;
14665;SDS011;7420;53.574;10.040;2023-04-07T15:06:09;5.00;;;4.03;;
14665;SDS011;7420;53.574;10.040;2023-04-07T15:08:36;5.43;;;4.57;;
14665;SDS011;7420;53.574;10.040;2023-04-07T15:11:07;5.45;;;4.50;;